createdAt,value
2023-01-11T00:04:31.337Z,98915.21
2023-01-11T00:09:57.994Z,98915.79
2023-01-11T00:15:19.788Z,98907.61
2023-01-11T00:20:45.242Z,98906.80
2023-01-11T00:26:13.016Z,98905.02
2023-01-11T00:31:34.889Z,98904.69
2023-01-11T00:36:56.622Z,98902.81
2023-01-11T00:42:37.190Z,98905.50
2023-01-11T00:48:02.419Z,98913.14
2023-01-11T00:53:24.253Z,98911.09
2023-01-11T00:58:46.150Z,98915.88
2023-01-11T01:04:07.792Z,98915.59
2023-01-11T01:09:30.197Z,98917.48
2023-01-11T01:14:54.146Z,98915.80
2023-01-11T01:20:16.213Z,98918.63
2023-01-11T01:25:38.289Z,98916.15
2023-01-11T01:31:00.221Z,98915.84
2023-01-11T01:36:22.048Z,98915.08
2023-01-11T01:41:45.450Z,98917.31
2023-01-11T01:47:07.432Z,98913.13
2023-01-11T01:52:29.604Z,98905.96
2023-01-11T01:57:51.868Z,98903.91
2023-01-11T02:03:20.522Z,98907.51
2023-01-11T02:08:43.494Z,98891.45
2023-01-11T02:14:09.616Z,98889.73
2023-01-11T02:19:40.470Z,98886.00
2023-01-11T02:25:40.137Z,98879.96
2023-01-11T02:31:19.662Z,98877.29
2023-01-11T02:37:02.296Z,98876.17
2023-01-11T02:43:09.124Z,98867.44
2023-01-11T02:48:42.689Z,98883.50
2023-01-11T02:54:09.314Z,98883.73
2023-01-11T02:59:33.396Z,98878.20
2023-01-11T03:04:57.345Z,98881.67
2023-01-11T03:10:43.676Z,98883.60
2023-01-11T03:16:23.510Z,98878.70
2023-01-11T03:22:04.596Z,98876.21
2023-01-11T03:27:38.315Z,98876.94
2023-01-11T03:33:20.783Z,98882.13
2023-01-11T03:38:54.376Z,98877.72
2023-01-11T03:44:17.789Z,98876.45
2023-01-11T03:49:46.872Z,98875.02
2023-01-11T03:55:10.803Z,98872.87
2023-01-11T04:00:33.413Z,98867.42
2023-01-11T04:05:58.840Z,98867.21
2023-01-11T04:11:20.886Z,98870.89
2023-01-11T04:16:42.819Z,98869.20
2023-01-11T04:22:04.746Z,98868.81
2023-01-11T04:27:26.665Z,98867.78
2023-01-11T04:32:48.681Z,98867.41
2023-01-11T04:38:10.503Z,98856.98
2023-01-11T04:43:32.480Z,98852.33
2023-01-11T04:48:56.478Z,98848.88
2023-01-11T04:54:18.607Z,98840.34
2023-01-11T04:59:40.713Z,98836.14
2023-01-11T05:05:02.872Z,98840.33
2023-01-11T05:10:24.378Z,98831.02
2023-01-11T05:15:47.328Z,98826.11
2023-01-11T05:21:10.963Z,98824.55
2023-01-11T05:26:35.116Z,98818.55
2023-01-11T05:31:56.723Z,98810.54
2023-01-11T05:37:18.656Z,98811.15
2023-01-11T05:42:40.290Z,98806.52
2023-01-11T05:48:02.414Z,98806.50
2023-01-11T05:53:24.610Z,98814.03
2023-01-11T05:58:50.496Z,98815.11
2023-01-11T06:04:12.861Z,98806.02
2023-01-11T06:09:35.162Z,98801.64
2023-01-11T06:14:59.015Z,98799.34
2023-01-11T06:20:21.017Z,98797.37
2023-01-11T06:25:45.188Z,98798.06
2023-01-11T06:31:08.305Z,98792.48
2023-01-11T06:36:30.297Z,98788.63
2023-01-11T06:41:52.140Z,98784.14
2023-01-11T06:47:14.077Z,98790.55
2023-01-11T06:52:36.063Z,98790.91
2023-01-11T06:57:58.036Z,98793.42
2023-01-11T07:03:24.248Z,98801.67
2023-01-11T07:08:46.584Z,98806.19
2023-01-11T07:14:08.732Z,98802.92
2023-01-11T07:19:30.885Z,98794.44
2023-01-11T07:24:52.906Z,98789.16
2023-01-11T07:30:14.971Z,98778.54
2023-01-11T07:35:36.656Z,98765.98
2023-01-11T07:40:58.584Z,98764.92
2023-01-11T07:46:20.582Z,98766.49
2023-01-11T07:51:42.956Z,98773.27
2023-01-11T07:57:05.680Z,98767.34
2023-01-11T08:02:28.706Z,98758.61
2023-01-11T08:07:51.751Z,98756.00
2023-01-11T08:13:40.751Z,98756.15
2023-01-11T08:19:02.901Z,98746.05
2023-01-11T08:24:24.679Z,98748.65
2023-01-11T08:29:46.756Z,98754.52
2023-01-11T08:35:09.127Z,98751.96
2023-01-11T08:40:31.071Z,98753.58
2023-01-11T08:45:53.354Z,98767.38
2023-01-11T08:51:15.683Z,98773.70
2023-01-11T08:56:37.967Z,98775.66
2023-01-11T09:01:59.842Z,98779.86
2023-01-11T09:07:21.864Z,98778.72
2023-01-11T09:12:43.822Z,98782.83
2023-01-11T09:18:05.789Z,98777.70
2023-01-11T09:23:27.656Z,98773.83
2023-01-11T09:28:49.761Z,98775.70
2023-01-11T09:34:13.418Z,98776.05
2023-01-11T09:39:35.467Z,98774.29
2023-01-11T09:45:07.135Z,98751.81
2023-01-11T09:50:31.189Z,98738.38
2023-01-11T09:55:56.849Z,98726.86
2023-01-11T10:01:47.534Z,98718.25
2023-01-11T10:07:26.313Z,98713.48
2023-01-11T10:25:17.040Z,98696.95
2023-01-11T10:31:08.077Z,98689.19
2023-01-11T10:37:09.566Z,98682.35
2023-01-11T10:42:45.016Z,98677.38
2023-01-11T10:48:23.797Z,98672.55
2023-01-11T10:54:14.407Z,98665.04
2023-01-11T10:59:48.845Z,98658.95
2023-01-11T11:05:19.436Z,98654.07
2023-01-11T11:11:08.727Z,98655.66
2023-01-11T11:16:41.581Z,98646.16
2023-01-11T11:22:03.217Z,98641.09
2023-01-11T11:27:31.085Z,98625.41
2023-01-11T11:33:07.347Z,98613.61
2023-01-11T11:38:31.670Z,98603.32
2023-01-11T11:44:09.306Z,98594.67
2023-01-11T11:49:36.285Z,98580.13
2023-01-11T11:54:59.359Z,98574.58
2023-01-11T12:00:30.897Z,98577.14
2023-01-11T12:06:07.605Z,98571.85
2023-01-11T12:11:35.344Z,98568.52
2023-01-11T12:16:58.261Z,98558.70
2023-01-11T12:22:22.365Z,98546.78
2023-01-11T12:28:06.127Z,98546.87
2023-01-11T12:33:38.284Z,98539.34
2023-01-11T12:39:26.201Z,98530.06
2023-01-11T12:44:57.465Z,98524.60
2023-01-11T12:50:25.179Z,98523.52
2023-01-11T12:56:18.261Z,98512.61
2023-01-11T13:01:52.325Z,98496.20
2023-01-11T13:07:27.622Z,98489.84
2023-01-11T13:13:13.514Z,98482.61
2023-01-11T13:18:35.171Z,98473.02
2023-01-11T13:24:02.395Z,98463.98
2023-01-11T13:29:27.934Z,98466.90
2023-01-11T13:34:49.978Z,98461.88
2023-01-11T13:40:24.950Z,98459.15
2023-01-11T13:45:52.222Z,98453.53
2023-01-11T13:51:48.818Z,98447.45
2023-01-11T13:57:22.775Z,98451.64
2023-01-11T14:03:31.403Z,98460.64
2023-01-11T14:09:06.775Z,98451.36
2023-01-11T14:14:36.549Z,98449.48
2023-01-11T14:20:20.843Z,98453.49
2023-01-11T14:25:45.280Z,98445.91
2023-01-11T14:31:23.298Z,98442.95
2023-01-11T14:37:03.772Z,98453.02
2023-01-11T14:42:35.689Z,98454.17
2023-01-11T14:48:06.795Z,98449.84
2023-01-11T14:53:40.056Z,98451.51
2023-01-11T14:59:04.615Z,98443.36
2023-01-11T15:04:27.998Z,98436.92
2023-01-11T15:09:53.696Z,98430.16
2023-01-11T15:15:19.564Z,98422.02
2023-01-11T15:21:01.915Z,98413.92
2023-01-11T15:26:25.652Z,98407.45
2023-01-11T15:31:53.775Z,98404.09
2023-01-11T15:37:45.259Z,98405.29
2023-01-11T15:43:35.884Z,98395.83
2023-01-11T15:49:19.486Z,98399.41
2023-01-11T15:55:06.183Z,98401.31
2023-01-11T16:00:55.556Z,98384.95
2023-01-11T16:06:40.519Z,98392.82
2023-01-11T16:12:10.780Z,98385.24
2023-01-11T16:17:33.113Z,98380.98
2023-01-11T16:22:58.443Z,98380.77
2023-01-11T16:28:20.281Z,98379.98
2023-01-11T16:33:42.053Z,98377.91
2023-01-11T16:39:08.054Z,98381.36
2023-01-11T16:44:45.637Z,98383.08
2023-01-11T16:50:21.115Z,98382.70
2023-01-11T16:56:11.946Z,98376.22
2023-01-11T17:01:48.339Z,98371.27
2023-01-11T17:07:19.835Z,98379.98
2023-01-11T17:12:43.731Z,98388.42
2023-01-11T17:18:05.552Z,98389.84
2023-01-11T17:23:27.708Z,98394.40
2023-01-11T17:28:50.924Z,98395.11
2023-01-11T17:34:39.440Z,98390.80
2023-01-11T17:40:01.466Z,98388.64
2023-01-11T17:45:24.807Z,98382.77
2023-01-11T17:50:49.661Z,98378.20
2023-01-11T17:56:38.572Z,98375.69
2023-01-11T18:02:02.983Z,98381.73
2023-01-11T18:07:25.245Z,98381.07
2023-01-11T18:12:48.771Z,98373.95
2023-01-11T18:18:44.016Z,98369.67
2023-01-11T18:24:09.064Z,98366.84
2023-01-11T18:29:37.024Z,98365.88
2023-01-11T18:34:59.348Z,98360.70
2023-01-11T18:40:21.776Z,98355.76
2023-01-11T18:45:44.122Z,98356.36
2023-01-11T18:51:06.243Z,98361.64
2023-01-11T18:56:28.629Z,98359.11
2023-01-11T19:01:58.917Z,98363.16
2023-01-11T19:07:24.843Z,98370.94
2023-01-11T19:12:47.110Z,98369.89
2023-01-11T19:18:09.540Z,98359.41
2023-01-11T19:23:32.308Z,98365.09
2023-01-11T19:28:54.393Z,98356.90
2023-01-11T19:34:16.218Z,98362.42
2023-01-11T19:39:40.367Z,98370.30
2023-01-11T19:45:02.596Z,98376.19
2023-01-11T19:50:24.918Z,98379.84
2023-01-11T19:55:48.600Z,98389.62
2023-01-11T20:01:12.355Z,98392.92
2023-01-11T20:06:34.419Z,98390.42
2023-01-11T20:11:58.452Z,98395.58
2023-01-11T20:17:21.392Z,98404.20
2023-01-11T20:22:44.780Z,98414.42
2023-01-11T20:28:06.451Z,98420.47
2023-01-11T20:33:28.878Z,98423.97
2023-01-11T20:38:51.609Z,98409.63
2023-01-11T20:44:20.265Z,98399.61
2023-01-11T20:49:41.790Z,98395.02
2023-01-11T20:55:04.098Z,98402.91
2023-01-11T21:00:26.021Z,98423.85
2023-01-11T21:05:48.381Z,98431.66
2023-01-11T21:11:13.758Z,98429.63
2023-01-11T21:16:36.057Z,98428.36
2023-01-11T21:21:57.885Z,98430.84
2023-01-11T21:27:19.877Z,98432.23
2023-01-11T21:32:41.735Z,98436.04
2023-01-11T21:38:03.771Z,98433.96
2023-01-11T21:43:25.699Z,98436.70
2023-01-11T21:48:47.486Z,98433.46
2023-01-11T21:54:12.356Z,98429.62
2023-01-11T21:59:35.909Z,98440.40
2023-01-11T22:04:58.633Z,98440.20
2023-01-11T22:10:20.446Z,98439.16
2023-01-11T22:15:42.496Z,98444.58
2023-01-11T22:21:12.560Z,98448.16
2023-01-11T22:26:36.587Z,98452.50
2023-01-11T22:32:01.445Z,98458.65
2023-01-11T22:37:23.359Z,98463.11
2023-01-11T22:42:45.187Z,98471.20
2023-01-11T22:48:07.034Z,98477.84
2023-01-11T22:53:29.163Z,98478.88
2023-01-11T22:58:52.837Z,98484.66
2023-01-11T23:04:14.910Z,98485.13
2023-01-11T23:09:36.841Z,98484.35
2023-01-11T23:14:58.670Z,98486.25
2023-01-11T23:20:21.000Z,98493.74
2023-01-11T23:25:42.529Z,98493.09
2023-01-11T23:31:17.379Z,98492.98
2023-01-11T23:36:41.240Z,98494.54
2023-01-11T23:42:21.638Z,98492.26
2023-01-11T23:47:43.372Z,98500.35
2023-01-11T23:53:05.625Z,98507.53
2023-01-11T23:58:27.622Z,98519.01
